Time;durP1;ratioP1;P1;durP2;ratioP2;P2;SDS_P1;SDS_P2;PMS_P1;PMS_P2;Temp;Humidity;BMP_temperature;BMP_pressure;BME280_temperature;BME280_humidity;BME280_pressure;Samples;Min_cycle;Max_cycle;Signal;HPM_P1;HPM_P2
2021/12/12 00:01:57;;;;;;;1.37;1.27;;;-1.10;99.90;-1.20;96679.00;;;;5062700;28;20454;-79
2021/12/12 00:04:47;;;;;;;4.47;1.53;;;-1.00;99.90;-1.20;96672.00;;;;5047375;28;20428;-79
2021/12/12 00:07:39;;;;;;;1.60;1.50;;;-1.00;99.90;-1.10;96689.00;;;;5036309;28;20993;-77
2021/12/12 00:10:33;;;;;;;2.50;1.50;;;-1.00;99.90;-0.90;96695.00;;;;5036740;28;20424;-78
2021/12/12 00:13:27;;;;;;;1.73;1.63;;;-0.80;99.90;-1.00;96698.00;;;;5049307;28;20429;-79
2021/12/12 00:16:16;;;;;;;1.73;1.40;;;-0.80;99.90;-1.00;96699.00;;;;5064808;28;20422;-79
2021/12/12 00:19:06;;;;;;;1.57;1.30;;;-0.70;99.90;-1.00;96699.00;;;;5031419;28;20939;-80
2021/12/12 00:21:59;;;;;;;1.43;1.20;;;-0.70;99.90;-1.10;96706.00;;;;5040080;28;20443;-78
2021/12/12 00:24:50;;;;;;;0.70;0.70;;;-0.80;99.90;-1.10;96712.00;;;;5032595;28;20447;-78
2021/12/12 00:27:39;;;;;;;1.20;1.10;;;-0.80;99.90;-1.10;96716.00;;;;5030181;28;20463;-80
2021/12/12 00:30:30;;;;;;;0.90;0.70;;;-0.80;99.90;-0.90;96705.00;;;;5031780;28;20432;-78
2021/12/12 00:33:20;;;;;;;2.27;1.30;;;-0.80;99.90;-0.80;96718.00;;;;5032546;28;20416;-80
2021/12/12 00:36:14;;;;;;;1.57;1.47;;;-0.70;99.90;-0.80;96715.00;;;;5031090;28;20989;-79
2021/12/12 00:39:10;;;;;;;0.97;0.97;;;-0.70;99.90;-0.70;96702.00;;;;5036895;28;20450;-80
2021/12/12 00:42:07;;;;;;;0.80;0.80;;;-0.60;99.90;0.80;96747.00;;;;5048047;28;20455;-79
2021/12/12 00:45:00;;;;;;;1.10;1.00;;;-0.30;99.90;0.00;96742.00;;;;5051621;28;20434;-80
2021/12/12 00:47:49;;;;;;;1.33;1.03;;;-0.10;99.90;-0.20;96733.00;;;;5043799;28;20424;-80
2021/12/12 00:50:42;;;;;;;3.40;1.53;;;0.00;99.90;-0.40;96726.00;;;;5061568;28;20435;-78
2021/12/12 00:53:42;;;;;;;1.80;1.70;;;0.00;99.90;-0.30;96747.00;;;;5042973;28;20516;-81
2021/12/12 00:56:32;;;;;;;0.80;0.80;;;0.00;99.90;-0.30;96756.00;;;;5030618;28;20613;-79
2021/12/12 00:59:22;;;;;;;2.83;1.60;;;0.00;99.90;-0.30;96763.00;;;;5054722;28;20438;-80
2021/12/12 01:02:17;;;;;;;1.30;1.20;;;-1.50;99.90;-0.20;96750.00;;;;5050525;28;20970;-78
2021/12/12 01:05:09;;;;;;;1.27;1.20;;;0.00;99.90;-0.30;96763.00;;;;5055243;28;20943;-79
2021/12/12 01:07:59;;;;;;;0.50;0.50;;;0.00;99.90;-0.30;96759.00;;;;5036820;28;20421;-82
2021/12/12 01:10:52;;;;;;;1.67;1.57;;;0.00;99.90;0.00;96777.00;;;;5057600;28;20432;-80
2021/12/12 01:13:42;;;;;;;1.13;1.03;;;-1.30;99.90;-0.20;96765.00;;;;5035141;28;20429;-81
2021/12/12 01:16:37;;;;;;;1.70;1.60;;;0.10;99.90;-0.10;96766.00;;;;5031136;28;20509;-82
2021/12/12 01:19:31;;;;;;;3.53;1.20;;;0.10;99.90;-0.30;96756.00;;;;5030072;28;20944;-81
2021/12/12 01:22:28;;;;;;;1.50;1.27;;;0.00;99.90;-0.10;96771.00;;;;5030902;28;21002;-79
2021/12/12 01:25:22;;;;;;;1.00;1.00;;;0.00;99.90;0.10;96772.00;;;;5028871;28;20428;-81
2021/12/12 01:28:14;;;;;;;2.77;1.70;;;0.10;99.90;0.00;96765.00;;;;5038114;28;20439;-81
2021/12/12 01:31:08;;;;;;;1.33;1.20;;;0.20;99.90;0.20;96781.00;;;;5045741;28;20451;-80
2021/12/12 01:34:10;;;;;;;1.63;1.50;;;0.20;99.90;-0.10;96777.00;;;;5031459;28;20825;-81
2021/12/12 01:37:12;;;;;;;1.77;1.27;;;-1.10;99.90;-0.10;96781.00;;;;5032240;28;20442;-81
2021/12/12 01:40:12;;;;;;;2.13;1.40;;;0.20;99.90;-0.10;96781.00;;;;5043991;28;20438;-80
2021/12/12 01:43:07;;;;;;;1.53;1.43;;;0.10;99.90;0.30;96790.00;;;;5047991;28;20463;-79
2021/12/12 01:46:03;;;;;;;1.90;1.20;;;0.20;99.90;0.20;96792.00;;;;5049748;28;20427;-80
2021/12/12 01:48:55;;;;;;;1.33;1.23;;;0.30;99.90;0.20;96775.00;;;;5032081;28;20431;-78
2021/12/12 01:51:47;;;;;;;1.50;1.40;;;0.40;99.90;0.10;96782.00;;;;5054310;28;20463;-80
2021/12/12 01:54:44;;;;;;;1.83;1.67;;;0.40;99.90;0.40;96804.00;;;;5028830;28;20440;-82
2021/12/12 01:57:37;;;;;;;1.53;1.37;;;0.40;99.90;0.70;96812.00;;;;5032085;28;20838;-82
2021/12/12 02:00:31;;;;;;;2.07;1.60;;;1.40;99.90;0.60;96807.00;;;;5040226;28;20461;-82
2021/12/12 02:03:23;;;;;;;1.43;1.33;;;0.60;99.90;0.40;96784.00;;;;5064702;28;20459;-81
2021/12/12 02:06:15;;;;;;;2.00;1.77;;;0.70;99.90;0.20;96803.00;;;;5045939;28;20959;-79
2021/12/12 02:09:08;;;;;;;1.47;1.13;;;0.60;99.90;0.10;96808.00;;;;5032221;28;20443;-78
2021/12/12 02:12:00;;;;;;;1.73;1.40;;;0.50;99.90;0.00;96812.00;;;;5046886;28;20451;-79
2021/12/12 02:14:50;;;;;;;1.07;1.00;;;0.40;99.90;0.10;96812.00;;;;5051474;28;20423;-81
2021/12/12 02:17:43;;;;;;;1.53;1.43;;;0.30;99.90;0.00;96806.00;;;;5047506;28;20439;-80
2021/12/12 02:20:43;;;;;;;1.47;1.37;;;0.30;99.90;-0.20;96817.00;;;;5047700;28;20428;-78
2021/12/12 02:23:47;;;;;;;0.70;0.70;;;0.20;99.90;-0.20;96795.00;;;;5032341;28;20479;-80
2021/12/12 02:35:58;;;;;;;1.53;1.40;;;0.20;99.90;0.00;96826.00;;;;5020183;28;20439;-81
2021/12/12 02:38:52;;;;;;;2.00;1.50;;;0.20;99.90;0.20;96836.00;;;;5044910;28;20440;-78
2021/12/12 02:41:41;;;;;;;1.97;1.60;;;0.30;99.90;0.30;96833.00;;;;5042776;28;20453;-79
2021/12/12 02:44:33;;;;;;;1.73;1.63;;;0.40;99.90;0.50;96854.00;;;;5032041;28;20468;-83
2021/12/12 02:47:32;;;;;;;2.83;1.80;;;0.40;99.90;0.60;96854.00;;;;5040553;28;20417;-78
2021/12/12 02:50:27;;;;;;;1.80;1.47;;;0.50;99.90;0.60;96854.00;;;;5054383;28;20420;-79
2021/12/12 02:53:26;;;;;;;2.00;1.70;;;0.60;99.90;0.50;96863.00;;;;5052451;28;20522;-79
2021/12/12 02:56:21;;;;;;;2.03;1.40;;;0.60;99.90;0.10;96850.00;;;;5028934;28;20436;-81
2021/12/12 02:59:16;;;;;;;2.03;1.53;;;0.60;99.90;0.20;96849.00;;;;5042209;28;20462;-81
2021/12/12 03:02:09;;;;;;;2.63;1.80;;;0.50;99.90;0.60;96860.00;;;;5047415;28;20955;-81
2021/12/12 03:05:04;;;;;;;2.30;1.63;;;0.40;99.90;0.50;96845.00;;;;5037945;28;20543;-77
2021/12/12 03:07:54;;;;;;;1.77;1.67;;;0.60;99.90;0.20;96843.00;;;;5057559;28;20451;-79
2021/12/12 03:10:50;;;;;;;2.30;1.43;;;0.50;99.90;0.10;96849.00;;;;5049778;28;20449;-78
2021/12/12 03:13:42;;;;;;;2.43;2.10;;;0.50;99.90;0.00;96850.00;;;;5041678;28;20447;-77
2021/12/12 03:16:31;;;;;;;2.20;2.00;;;0.40;99.90;-0.10;96853.00;;;;5049419;28;20423;-77
2021/12/12 03:19:20;;;;;;;1.63;1.53;;;0.30;99.90;-0.10;96863.00;;;;5049518;28;20505;-77
2021/12/12 03:22:11;;;;;;;1.83;1.53;;;0.30;99.90;0.20;96877.00;;;;5041984;28;20470;-78
2021/12/12 03:25:00;;;;;;;1.60;1.50;;;0.30;99.90;0.00;96871.00;;;;5035928;28;20467;-78
2021/12/12 03:27:50;;;;;;;1.80;1.70;;;0.20;99.90;-0.20;96867.00;;;;5038770;28;20440;-77
2021/12/12 03:30:42;;;;;;;8.43;2.03;;;0.20;99.90;-0.20;96870.00;;;;5026873;28;20439;-77
2021/12/12 03:33:34;;;;;;;1.80;1.27;;;0.10;99.90;0.00;96874.00;;;;5027549;28;20454;-79
2021/12/12 03:36:25;;;;;;;1.40;1.30;;;0.10;99.90;-0.10;96878.00;;;;5034552;28;20514;-79
2021/12/12 03:39:19;;;;;;;2.07;1.70;;;0.10;99.90;-0.10;96884.00;;;;5040092;28;20436;-77
2021/12/12 03:42:12;;;;;;;6.27;1.97;;;0.10;99.90;0.00;96867.00;;;;5027749;28;20452;-79
2021/12/12 03:45:02;;;;;;;1.83;1.67;;;0.10;99.90;0.20;96878.00;;;;5028610;28;20983;-81
2021/12/12 03:47:59;;;;;;;2.10;1.90;;;0.20;99.90;0.00;96878.00;;;;5046299;28;20437;-80
2021/12/12 03:50:54;;;;;;;3.13;1.23;;;0.20;99.90;0.10;96890.00;;;;5063921;28;20476;-79
2021/12/12 03:53:44;;;;;;;2.60;2.27;;;0.20;99.90;0.00;96890.00;;;;5049741;28;20784;-79
2021/12/12 03:56:34;;;;;;;1.83;1.70;;;0.20;99.90;-0.20;96889.00;;;;5031612;28;20413;-81
2021/12/12 03:59:22;;;;;;;1.90;1.57;;;0.10;99.90;0.00;96900.00;;;;5031031;28;20428;-81
2021/12/12 04:02:11;;;;;;;2.77;2.20;;;0.20;99.90;-0.10;96897.00;;;;5042166;28;20443;-80
2021/12/12 04:05:02;;;;;;;2.90;2.40;;;0.20;99.90;-0.10;96898.00;;;;5051262;28;20470;-81
2021/12/12 04:07:51;;;;;;;1.40;1.30;;;0.20;99.90;-0.20;96894.00;;;;5044047;28;20432;-82
2021/12/12 04:10:42;;;;;;;1.40;1.30;;;0.20;99.90;-0.30;96905.00;;;;5056643;28;20438;-81
2021/12/12 04:13:31;;;;;;;1.70;1.47;;;0.10;99.90;-0.10;96904.00;;;;5030776;28;20482;-82
2021/12/12 04:16:22;;;;;;;1.80;1.43;;;0.00;99.90;-0.30;96903.00;;;;5044883;28;20436;-80
2021/12/12 04:19:11;;;;;;;1.77;1.67;;;0.00;99.90;-0.10;96909.00;;;;5031064;28;20455;-81
2021/12/12 04:22:03;;;;;;;1.60;1.50;;;-0.10;99.90;-0.10;96912.00;;;;5031263;28;20448;-82
2021/12/12 04:24:56;;;;;;;2.53;1.90;;;-0.10;99.90;-0.30;96908.00;;;;5033720;28;20467;-82
2021/12/12 04:27:45;;;;;;;2.63;1.77;;;-0.10;99.90;-0.40;96907.00;;;;5033215;28;20988;-82
2021/12/12 04:30:34;;;;;;;2.20;1.90;;;-0.10;99.90;-0.40;96927.00;;;;5030306;28;20428;-82
2021/12/12 04:33:23;;;;;;;4.60;2.10;;;-0.10;99.90;-0.40;96926.00;;;;5041346;28;20447;-81
2021/12/12 04:36:12;;;;;;;1.80;1.70;;;-0.10;99.90;-0.40;96922.00;;;;5050900;28;20946;-80
2021/12/12 04:39:10;;;;;;;2.10;1.70;;;-0.10;99.90;-0.40;96921.00;;;;5050771;28;20950;-81
2021/12/12 04:42:04;;;;;;;4.10;1.90;;;-0.10;99.90;-0.20;96917.00;;;;5038659;28;20451;-80
2021/12/12 04:45:19;;;;;;;2.07;1.97;;;-0.10;99.90;-0.40;96911.00;;;;5048705;28;20468;-80
2021/12/12 04:51:27;;;;;;;2.30;1.90;;;-0.10;99.90;-0.40;96921.00;;;;5056058;28;20966;-80
2021/12/12 04:54:32;;;;;;;1.77;1.67;;;-0.10;99.90;-0.50;96923.00;;;;5036749;28;20412;-81
2021/12/12 04:57:28;;;;;;;2.20;1.90;;;0.60;99.90;-0.50;96937.00;;;;5029804;28;20432;-80
2021/12/12 05:00:23;;;;;;;3.63;1.60;;;-0.10;99.90;-0.50;96936.00;;;;5038753;28;20423;-80
2021/12/12 05:03:18;;;;;;;2.10;2.00;;;-0.20;99.90;-0.50;96940.00;;;;5048961;28;20918;-78
2021/12/12 05:06:16;;;;;;;4.67;1.80;;;-0.20;99.90;-0.40;96933.00;;;;5036242;28;20494;-80
2021/12/12 05:09:09;;;;;;;1.63;1.43;;;-0.20;99.90;-0.40;96939.00;;;;5061531;28;20422;-80
2021/12/12 05:12:06;;;;;;;1.80;1.40;;;-0.10;99.90;-0.50;96950.00;;;;5049644;28;21128;-78
2021/12/12 05:15:01;;;;;;;2.30;1.77;;;-0.10;99.90;-0.60;96937.00;;;;5033697;28;20644;-79
2021/12/12 05:17:55;;;;;;;1.63;1.30;;;-0.20;99.90;-0.60;96949.00;;;;5032986;28;20440;-80
2021/12/12 05:20:49;;;;;;;1.20;1.10;;;-0.20;99.90;-0.60;96948.00;;;;5034648;28;20811;-79
2021/12/12 05:23:43;;;;;;;2.70;1.63;;;-0.30;99.90;-0.60;96956.00;;;;5034478;28;20420;-79
2021/12/12 05:26:36;;;;;;;1.47;1.37;;;-0.30;99.90;-0.80;96969.00;;;;5042291;28;20471;-80
2021/12/12 05:29:31;;;;;;;1.57;1.47;;;-0.30;99.90;-0.70;96978.00;;;;5048034;28;20424;-78
2021/12/12 05:32:22;;;;;;;2.70;1.57;;;-0.40;99.90;-0.70;96966.00;;;;5032864;28;20456;-79
2021/12/12 05:35:13;;;;;;;1.43;1.33;;;-0.40;99.90;-0.80;96967.00;;;;5031546;28;20793;-79
2021/12/12 05:38:04;;;;;;;1.00;1.00;;;-0.40;99.90;-0.80;96972.00;;;;5040582;28;20502;-80
2021/12/12 05:40:54;;;;;;;1.37;1.20;;;-0.40;99.90;-0.80;96964.00;;;;5043805;28;20649;-81
2021/12/12 05:43:43;;;;;;;1.50;1.30;;;-0.40;99.90;-0.70;96969.00;;;;5038882;28;20434;-81
2021/12/12 05:46:34;;;;;;;1.33;1.13;;;-0.40;99.90;0.20;96981.00;;;;5061222;28;20486;-79
2021/12/12 05:49:23;;;;;;;1.37;1.27;;;-0.30;99.90;0.20;96971.00;;;;5037197;28;20434;-77
2021/12/12 05:52:16;;;;;;;1.20;1.10;;;0.00;99.90;0.50;96980.00;;;;5058114;28;20438;-78
2021/12/12 05:55:08;;;;;;;1.43;1.20;;;0.20;99.90;0.30;96980.00;;;;5030563;28;20467;-80
2021/12/12 05:57:59;;;;;;;0.83;0.83;;;0.40;99.90;0.40;96939.00;;;;5048736;28;20438;-79
2021/12/12 06:00:53;;;;;;;0.80;0.77;;;0.50;99.90;1.10;97002.00;;;;5030515;28;20530;-79
2021/12/12 06:03:47;;;;;;;0.80;0.67;;;0.80;99.90;1.80;97010.00;;;;5038769;28;20443;-81
2021/12/12 06:06:41;;;;;;;1.10;1.00;;;1.10;99.90;2.00;97009.00;;;;5041245;28;20476;-77
2021/12/12 06:09:31;;;;;;;0.77;0.77;;;1.60;99.90;2.10;96991.00;;;;5047089;28;20433;-75
2021/12/12 06:12:22;;;;;;;0.60;0.60;;;1.80;99.90;2.00;97015.00;;;;5045952;28;20973;-78
2021/12/12 06:15:16;;;;;;;2.10;0.60;;;2.00;99.90;2.00;97024.00;;;;5053367;28;20415;-81
2021/12/12 06:18:05;;;;;;;1.10;1.00;;;2.10;99.90;2.20;97016.00;;;;5045480;28;20432;-80
2021/12/12 06:20:56;;;;;;;1.23;1.13;;;2.10;99.90;2.00;97008.00;;;;5027446;28;20432;-79
2021/12/12 06:23:46;;;;;;;1.10;0.90;;;2.20;99.90;1.90;96991.00;;;;5031304;28;20955;-81
2021/12/12 06:26:35;;;;;;;1.40;0.77;;;2.20;99.90;2.00;97005.00;;;;5027895;28;20475;-83
2021/12/12 06:29:25;;;;;;;0.60;0.60;;;2.20;99.90;2.10;97002.00;;;;5034168;28;20823;-82
2021/12/12 06:32:14;;;;;;;0.97;0.97;;;2.20;99.90;2.10;97003.00;;;;5036362;28;20444;-80
2021/12/12 06:35:06;;;;;;;0.70;0.70;;;2.20;99.90;2.30;97019.00;;;;5042230;28;20540;-82
2021/12/12 06:38:01;;;;;;;1.83;0.80;;;2.30;99.90;2.30;96996.00;;;;5041854;28;20808;-80
2021/12/12 06:40:52;;;;;;;0.70;0.70;;;2.40;99.90;2.20;96953.00;;;;5040684;28;20459;-82
2021/12/12 06:43:42;;;;;;;0.77;0.77;;;2.40;99.90;2.70;97003.00;;;;5039845;28;20429;-81
2021/12/12 06:46:32;;;;;;;0.83;0.83;;;2.60;99.90;2.70;96990.00;;;;5034311;28;20462;-83
2021/12/12 06:49:24;;;;;;;0.60;0.50;;;2.70;99.90;2.70;96983.00;;;;5045123;28;20422;-78
2021/12/12 06:52:16;;;;;;;0.73;0.73;;;2.80;99.90;2.80;96975.00;;;;5044980;28;20451;-77
2021/12/12 06:55:11;;;;;;;1.37;1.07;;;2.80;99.90;2.80;96974.00;;;;5025990;28;20971;-77
2021/12/12 06:58:01;;;;;;;1.87;0.50;;;3.00;99.90;2.80;96984.00;;;;5028340;28;20439;-79
2021/12/12 07:00:54;;;;;;;0.63;0.63;;;3.00;99.90;3.10;96964.00;;;;5037188;28;20451;-80
2021/12/12 07:03:45;;;;;;;0.93;0.77;;;3.10;99.90;3.10;96990.00;;;;5040444;28;20431;-75
2021/12/12 07:06:35;;;;;;;0.50;0.50;;;3.10;99.50;3.10;96973.00;;;;5030763;28;20890;-77
2021/12/12 07:09:25;;;;;;;4.93;0.90;;;3.20;99.40;3.20;96976.00;;;;5047360;28;20418;-83
2021/12/12 07:12:22;;;;;;;0.67;0.67;;;3.20;99.60;3.10;96959.00;;;;5046296;28;20473;-82
2021/12/12 07:15:16;;;;;;;0.67;0.67;;;3.20;99.80;3.30;97018.00;;;;5044261;28;20973;-75
2021/12/12 07:18:10;;;;;;;0.87;0.70;;;3.40;97.70;3.70;96999.00;;;;5050107;28;20446;-76
2021/12/12 07:21:04;;;;;;;1.00;0.90;;;3.50;97.20;3.60;96992.00;;;;5056891;28;20464;-77
2021/12/12 07:23:54;;;;;;;0.83;0.83;;;3.60;96.40;3.50;97005.00;;;;5052555;28;20443;-75
2021/12/12 07:26:44;;;;;;;0.87;0.87;;;3.70;95.50;3.60;96991.00;;;;5055140;28;20478;-74
2021/12/12 07:29:35;;;;;;;0.80;0.60;;;3.70;96.00;3.80;97012.00;;;;5054255;28;20438;-78
2021/12/12 07:32:26;;;;;;;0.60;0.60;;;3.80;94.70;4.00;96991.00;;;;5049665;28;20227;-81
2021/12/12 07:35:16;;;;;;;0.70;0.70;;;3.90;94.00;4.10;96984.00;;;;5050345;28;20453;-79
2021/12/12 07:38:09;;;;;;;0.97;0.63;;;4.00;94.60;4.10;97013.00;;;;5055288;28;20319;-79
2021/12/12 07:40:59;;;;;;;0.70;0.67;;;4.00;94.20;4.20;97001.00;;;;5038451;28;20451;-78
2021/12/12 07:43:48;;;;;;;1.60;0.90;;;4.20;92.50;4.50;96991.00;;;;5058217;28;20436;-80
2021/12/12 07:46:40;;;;;;;0.90;0.90;;;4.30;92.80;4.40;96983.00;;;;5056768;28;20734;-78
2021/12/12 07:49:35;;;;;;;0.70;0.70;;;4.40;92.90;4.60;97007.00;;;;5059214;28;20196;-74
2021/12/12 07:52:27;;;;;;;2.20;1.27;;;4.50;92.40;4.60;97018.00;;;;5051673;28;20342;-79
2021/12/12 07:55:17;;;;;;;1.17;0.80;;;4.60;90.30;4.90;97009.00;;;;5046781;28;20196;-82
2021/12/12 07:58:08;;;;;;;0.80;0.53;;;4.80;91.60;4.60;96989.00;;;;5053226;28;20223;-75
2021/12/12 08:01:00;;;;;;;0.60;0.60;;;4.70;86.40;5.10;97043.00;;;;5049755;28;20747;-77
2021/12/12 08:03:54;;;;;;;0.60;0.60;;;5.00;86.10;5.10;97030.00;;;;5045469;28;20205;-77
2021/12/12 08:06:44;;;;;;;0.43;0.43;;;5.10;88.60;5.10;97029.00;;;;5039017;28;20232;-74
2021/12/12 08:09:33;;;;;;;0.60;0.60;;;5.10;87.20;5.20;97017.00;;;;5035856;28;20224;-76
2021/12/12 08:12:29;;;;;;;0.57;0.50;;;5.20;86.80;5.30;97013.00;;;;5043956;28;20715;-77
2021/12/12 08:15:18;;;;;;;0.60;0.60;;;5.30;87.00;5.00;96989.00;;;;5044103;28;20212;-76
2021/12/12 08:18:11;;;;;;;0.63;0.63;;;5.30;87.40;5.10;96986.00;;;;5036054;28;20905;-76
2021/12/12 08:21:08;;;;;;;0.67;0.60;;;5.30;86.60;5.30;97005.00;;;;5057055;28;20960;-76
2021/12/12 08:24:01;;;;;;;0.60;0.50;;;5.30;87.10;5.30;97028.00;;;;5034486;28;20197;-77
2021/12/12 08:26:50;;;;;;;0.60;0.60;;;5.40;86.10;5.40;97002.00;;;;5032040;28;20720;-78
2021/12/12 08:29:39;;;;;;;0.70;0.53;;;5.40;85.10;5.60;97040.00;;;;5044860;28;20197;-78
2021/12/12 08:32:29;;;;;;;0.50;0.50;;;5.40;85.70;5.10;97032.00;;;;5045181;28;20224;-80
2021/12/12 08:35:30;;;;;;;0.60;0.50;;;5.40;83.00;5.10;97034.00;;;;5046218;28;20212;-78
2021/12/12 08:38:22;;;;;;;0.60;0.60;;;5.30;84.20;5.30;97038.00;;;;5051356;28;20204;-79
2021/12/12 08:41:11;;;;;;;0.50;0.50;;;5.30;83.30;5.00;97048.00;;;;5053265;28;20240;-74
2021/12/12 08:44:01;;;;;;;0.40;0.40;;;5.30;86.60;4.90;97054.00;;;;5051816;28;20558;-76
2021/12/12 08:46:57;;;;;;;1.30;1.07;;;5.20;83.70;5.00;97061.00;;;;5067740;28;20234;-78
2021/12/12 08:49:46;;;;;;;0.60;0.60;;;5.10;82.90;4.80;97038.00;;;;5073461;28;20205;-78
2021/12/12 08:52:37;;;;;;;0.60;0.60;;;5.10;82.80;4.90;97068.00;;;;5051360;28;20225;-81
2021/12/12 08:55:35;;;;;;;0.43;0.43;;;5.10;84.20;4.80;97046.00;;;;5039057;28;20216;-76
2021/12/12 08:58:28;;;;;;;1.20;1.07;;;6.80;84.50;5.10;97049.00;;;;5041097;28;20204;-73
2021/12/12 09:01:19;;;;;;;0.93;0.83;;;5.10;84.50;4.90;97055.00;;;;5050429;28;20870;-76
2021/12/12 09:04:11;;;;;;;1.13;0.90;;;5.10;83.40;5.10;97054.00;;;;5047049;28;20207;-73
2021/12/12 09:07:21;;;;;;;0.80;0.80;;;5.10;87.90;5.30;97064.00;;;;5036941;28;20220;-75
2021/12/12 09:10:15;;;;;;;0.93;0.83;;;5.10;89.10;5.40;97054.00;;;;5035171;28;21840;-75
2021/12/12 09:13:11;;;;;;;0.80;0.80;;;5.20;86.70;5.40;97046.00;;;;5028615;28;20247;-75
2021/12/12 09:16:08;;;;;;;0.93;0.87;;;5.30;81.50;5.90;97061.00;;;;5038521;28;20211;-75
2021/12/12 09:19:04;;;;;;;1.07;0.83;;;5.50;80.50;5.30;97031.00;;;;5039856;28;20208;-73
2021/12/12 09:22:04;;;;;;;1.23;0.83;;;5.60;81.90;5.40;97069.00;;;;5049806;28;20243;-76
2021/12/12 09:25:03;;;;;;;0.60;0.60;;;5.60;82.10;5.60;97078.00;;;;5046039;28;20204;-77
2021/12/12 09:28:08;;;;;;;1.07;0.70;;;5.50;83.90;5.70;97073.00;;;;5047993;28;20236;-77
2021/12/12 09:31:02;;;;;;;0.50;0.40;;;5.50;85.10;5.70;97083.00;;;;5044712;28;20219;-76
2021/12/12 09:33:55;;;;;;;0.87;0.87;;;5.50;83.70;5.30;97098.00;;;;5051814;28;20713;-80
2021/12/12 09:36:51;;;;;;;0.50;0.50;;;5.50;85.90;5.40;97089.00;;;;5053706;28;20216;-81
2021/12/12 09:39:47;;;;;;;1.67;1.10;;;5.40;88.20;5.20;97070.00;;;;5053986;28;20200;-80
2021/12/12 09:42:58;;;;;;;0.90;0.80;;;5.40;91.10;5.40;97076.00;;;;5056224;28;20228;-80
2021/12/12 09:46:08;;;;;;;0.83;0.70;;;5.30;91.90;5.50;97073.00;;;;5052183;28;20224;-81
2021/12/12 09:53:19;;;;;;;0.80;0.70;;;5.30;91.50;5.80;97084.00;;;;5053102;28;20234;-83
2021/12/12 09:56:16;;;;;;;1.27;1.17;;;5.50;91.00;6.20;97088.00;;;;5030060;28;20215;-79
2021/12/12 09:59:15;;;;;;;0.70;0.70;;;5.70;86.20;6.00;97081.00;;;;5054781;28;20226;-82
2021/12/12 10:02:22;;;;;;;0.97;0.70;;;5.80;86.90;6.60;97092.00;;;;5051974;28;20246;-80
2021/12/12 10:05:28;;;;;;;0.70;0.70;;;6.00;86.40;6.90;97086.00;;;;5043358;28;20212;-80
2021/12/12 10:08:30;;;;;;;0.70;0.70;;;6.30;81.10;8.00;97092.00;;;;5056439;28;20994;-80
2021/12/12 10:11:27;;;;;;;0.40;0.40;;;6.70;84.60;8.20;97089.00;;;;5048750;28;20245;-79
2021/12/12 10:14:25;;;;;;;0.40;0.40;;;7.10;79.60;8.00;97085.00;;;;5053180;28;20218;-81
2021/12/12 10:17:25;;;;;;;0.50;0.50;;;7.50;78.80;8.20;97091.00;;;;5048867;28;20213;-80
2021/12/12 10:20:22;;;;;;;0.63;0.63;;;8.10;74.30;8.50;97103.00;;;;5050258;28;20208;-80
2021/12/12 10:23:22;;;;;;;0.50;0.50;;;8.70;70.90;8.20;97113.00;;;;5050282;28;20243;-80
2021/12/12 10:26:19;;;;;;;0.83;0.70;;;8.90;69.70;8.30;97116.00;;;;5049843;28;20205;-78
2021/12/12 10:29:14;;;;;;;0.40;0.40;;;9.00;67.90;8.80;97103.00;;;;5050832;28;20591;-79
2021/12/12 10:32:12;;;;;;;1.13;0.50;;;9.20;68.40;9.10;97094.00;;;;5054247;28;20227;-82
2021/12/12 10:35:10;;;;;;;0.40;0.40;;;9.40;67.40;10.40;97096.00;;;;5044643;28;20908;-81
2021/12/12 10:38:04;;;;;;;0.60;0.53;;;10.00;69.00;11.00;97103.00;;;;5049824;28;20212;-78
2021/12/12 10:41:00;;;;;;;0.60;0.60;;;10.70;67.80;10.50;97104.00;;;;5044551;28;20207;-81
2021/12/12 10:43:56;;;;;;;2.13;0.50;;;10.90;61.00;10.90;97087.00;;;;5041201;28;20214;-80
2021/12/12 10:46:57;;;;;;;0.60;0.53;;;11.30;61.00;11.20;97095.00;;;;5052109;28;20264;-79
2021/12/12 10:50:10;;;;;;;1.07;0.97;;;11.50;58.80;8.90;97076.00;;;;5051194;28;20214;-77
2021/12/12 10:53:06;;;;;;;0.70;0.60;;;11.30;54.90;9.70;97091.00;;;;5047607;28;20232;-77
2021/12/12 10:56:04;;;;;;;1.23;0.53;;;10.70;55.90;10.90;97089.00;;;;5049107;28;20204;-78
2021/12/12 10:58:59;;;;;;;0.40;0.40;;;10.90;57.50;9.30;97097.00;;;;5050247;28;20212;-78
2021/12/12 11:01:53;;;;;;;0.50;0.50;;;10.90;54.50;9.70;97085.00;;;;5053584;28;20232;-76
2021/12/12 11:04:48;;;;;;;0.67;0.57;;;10.70;56.20;9.50;97096.00;;;;5053970;28;20210;-75
2021/12/12 11:07:45;;;;;;;7.63;0.43;;;10.50;54.90;10.50;97103.00;;;;5053832;28;20228;-75
2021/12/12 11:10:38;;;;;;;0.50;0.50;;;10.70;56.70;11.00;97093.00;;;;5050882;28;20203;-74
2021/12/12 11:13:35;;;;;;;0.60;0.53;;;10.90;56.60;11.80;97124.00;;;;5048756;28;20389;-74
2021/12/12 11:16:31;;;;;;;0.20;0.20;;;11.40;56.70;11.70;97132.00;;;;5046779;28;20666;-77
2021/12/12 11:19:33;;;;;;;0.40;0.40;;;11.60;56.10;10.40;97134.00;;;;5048108;28;20211;-76
2021/12/12 11:22:29;;;;;;;0.50;0.47;;;11.50;55.40;11.70;97122.00;;;;5047333;28;20253;-75
2021/12/12 11:25:27;;;;;;;0.80;0.67;;;11.80;55.70;10.90;97103.00;;;;5052195;28;20230;-76
2021/12/12 11:28:24;;;;;;;0.30;0.30;;;11.80;54.50;10.50;97113.00;;;;5048398;28;20236;-75
2021/12/12 11:31:18;;;;;;;0.30;0.30;;;12.00;54.50;9.60;97093.00;;;;5049735;28;20241;-75
2021/12/12 11:34:09;;;;;;;0.33;0.33;;;11.10;55.40;11.80;97132.00;;;;5046705;28;20220;-77
2021/12/12 11:37:14;;;;;;;0.60;0.60;;;11.40;56.30;9.60;97088.00;;;;5062920;28;20249;-75
2021/12/12 11:40:13;;;;;;;0.80;0.50;;;11.20;55.20;10.60;97117.00;;;;5047981;28;20219;-78
2021/12/12 11:43:13;;;;;;;0.50;0.50;;;11.20;55.30;9.00;97115.00;;;;5044407;28;20288;-78
2021/12/12 11:46:06;;;;;;;0.90;0.47;;;11.00;53.10;10.20;97126.00;;;;5052329;28;20212;-76
2021/12/12 11:49:25;;;;;;;0.40;0.37;;;11.10;55.10;10.40;97122.00;;;;5054542;28;20230;-75
2021/12/12 11:52:37;;;;;;;0.40;0.30;;;11.30;55.40;10.10;97123.00;;;;5064902;28;20224;-74
2021/12/12 11:55:34;;;;;;;0.60;0.37;;;11.30;54.20;12.10;97138.00;;;;5050189;28;20209;-76
2021/12/12 11:58:37;;;;;;;0.30;0.30;;;11.60;55.40;10.50;97151.00;;;;5050450;28;20283;-76
2021/12/12 12:02:05;;;;;;;0.53;0.37;;;11.70;53.80;11.10;97133.00;;;;5048998;28;20236;-76
2021/12/12 12:05:23;;;;;;;3.23;0.50;;;11.50;54.10;12.40;97133.00;;;;5047351;28;20215;-77
2021/12/12 12:08:22;;;;;;;1.57;0.47;;;11.70;55.00;11.50;97150.00;;;;5048543;28;20259;-75
2021/12/12 12:11:29;;;;;;;0.30;0.30;;;12.20;52.20;13.40;97151.00;;;;5048454;28;20229;-76
2021/12/12 12:14:29;;;;;;;0.43;0.27;;;12.80;53.40;13.70;97147.00;;;;5051344;28;20995;-75
2021/12/12 12:17:28;;;;;;;0.67;0.30;;;13.40;53.10;13.90;97147.00;;;;5045437;28;20217;-75
2021/12/12 12:20:43;;;;;;;0.40;0.20;;;13.70;52.50;15.00;97150.00;;;;5046624;28;20207;-76
2021/12/12 12:24:10;;;;;;;0.32;0.30;;;14.30;50.50;13.70;97169.00;;;;5036392;28;20419;-75
2021/12/12 12:27:04;;;;;;;0.60;0.60;;;14.90;50.20;13.50;97151.00;;;;5040554;28;20220;-75
2021/12/12 12:31:40;;;;;;;0.57;0.30;;;14.80;48.90;14.60;97166.00;;;;5056467;28;20614;-78
2021/12/12 12:35:24;;;;;;;0.43;0.40;;;14.60;49.40;11.80;97182.00;;;;5049040;28;20214;-79
2021/12/12 12:39:08;;;;;;;1.03;0.43;;;14.00;49.20;10.20;97184.00;;;;5051960;28;20200;-76
2021/12/12 12:43:09;;;;;;;0.47;0.47;;;12.90;49.80;9.40;97169.00;;;;5040059;28;20602;-76
2021/12/12 12:47:19;;;;;;;0.60;0.30;;;11.20;52.30;9.20;97164.00;;;;4937879;28;20212;-80
2021/12/12 12:51:05;;;;;;;2.83;0.50;;;10.50;53.60;9.30;97183.00;;;;4992611;28;20228;-77
2021/12/12 12:54:20;;;;;;;0.50;0.50;;;10.10;55.40;8.70;97172.00;;;;5043687;28;20579;-77
2021/12/12 12:57:24;;;;;;;0.47;0.47;;;9.70;55.30;8.70;97183.00;;;;5049978;28;20197;-76
2021/12/12 13:00:18;;;;;;;0.60;0.60;;;9.40;56.30;8.10;97185.00;;;;5055616;28;20721;-76
2021/12/12 13:03:28;;;;;;;0.50;0.50;;;9.00;56.30;8.70;97190.00;;;;5029561;28;20225;-81
2021/12/12 13:07:03;;;;;;;0.40;0.40;;;8.90;57.40;8.50;97184.00;;;;5044250;28;20211;-78
2021/12/12 13:10:01;;;;;;;1.23;0.70;;;8.80;57.30;8.10;97180.00;;;;5034265;28;20243;-79
2021/12/12 13:13:09;;;;;;;0.80;0.80;;;8.80;58.10;8.60;97197.00;;;;5034756;28;20228;-76
2021/12/12 13:16:07;;;;;;;1.33;1.23;;;8.70;58.80;8.20;97196.00;;;;5051711;28;20208;-76
2021/12/12 13:19:05;;;;;;;0.30;0.30;;;8.60;58.30;8.40;97199.00;;;;5045925;28;20192;-72
2021/12/12 13:22:06;;;;;;;0.60;0.60;;;8.40;59.00;8.30;97185.00;;;;5048661;28;20235;-76
2021/12/12 13:25:08;;;;;;;0.43;0.40;;;8.50;59.50;8.00;97202.00;;;;5057145;28;20204;-79
2021/12/12 13:28:08;;;;;;;2.10;0.90;;;8.30;58.40;8.40;97196.00;;;;5036471;28;20216;-79
2021/12/12 13:31:06;;;;;;;0.27;0.27;;;8.30;59.10;8.50;97208.00;;;;5038466;28;20560;-75
2021/12/12 13:34:08;;;;;;;0.60;0.57;;;8.40;60.70;8.10;97196.00;;;;5052243;28;20207;-77